createdAt,value
2023-02-21T00:02:30.632Z,7.60
2023-02-21T00:07:52.473Z,9.10
2023-02-21T00:13:14.007Z,4.60
2023-02-21T00:18:35.233Z,5.10
2023-02-21T00:23:56.798Z,11.60
2023-02-21T00:29:18.195Z,12.90
2023-02-21T00:34:39.499Z,6.80
2023-02-21T00:40:00.672Z,6.80
2023-02-21T00:45:22.230Z,9.30
2023-02-21T00:50:43.533Z,12.20
2023-02-21T00:56:04.987Z,10.10
2023-02-21T01:01:26.651Z,10.60
2023-02-21T01:06:47.942Z,6.40
2023-02-21T01:12:09.320Z,9.70
2023-02-21T01:17:30.556Z,7.70
2023-02-21T01:22:52.063Z,8.20
2023-02-21T01:28:14.152Z,9.30
2023-02-21T01:33:35.485Z,7.20
2023-02-21T01:38:56.823Z,6.40
2023-02-21T01:44:45.887Z,8.00
2023-02-21T01:50:07.313Z,7.50
2023-02-21T01:55:30.262Z,7.70
2023-02-21T02:00:52.006Z,8.50
2023-02-21T02:06:19.333Z,6.10
2023-02-21T02:11:47.019Z,16.10
2023-02-21T02:17:10.789Z,5.90
2023-02-21T02:22:28.578Z,4.40
2023-02-21T02:27:44.790Z,7.00
2023-02-21T02:33:09.196Z,9.00
2023-02-21T02:38:30.636Z,10.20
2023-02-21T02:43:41.379Z,9.90
2023-02-21T02:48:50.670Z,8.50
2023-02-21T02:53:53.565Z,8.20
2023-02-21T02:59:10.342Z,8.80
2023-02-21T03:09:29.416Z,9.10
2023-02-21T03:14:46.351Z,9.90
2023-02-21T03:19:52.914Z,12.10
2023-02-21T03:24:58.403Z,6.60
2023-02-21T03:30:04.260Z,7.40
2023-02-21T03:35:07.807Z,11.50
2023-02-21T03:40:26.805Z,13.20
2023-02-21T03:45:29.501Z,12.20
2023-02-21T03:50:32.166Z,12.40
2023-02-21T03:55:34.884Z,12.90
2023-02-21T04:00:37.604Z,12.50
2023-02-21T04:05:40.350Z,11.60
2023-02-21T04:10:51.656Z,8.20
2023-02-21T04:15:55.094Z,9.50
2023-02-21T04:20:57.770Z,9.50
2023-02-21T04:26:00.457Z,10.50
2023-02-21T04:31:03.163Z,12.10
2023-02-21T04:36:06.569Z,9.70
2023-02-21T04:41:09.508Z,9.50
2023-02-21T04:46:17.621Z,12.00
2023-02-21T04:51:23.243Z,9.30
2023-02-21T04:56:28.153Z,6.70
2023-02-21T05:01:32.188Z,6.40
2023-02-21T05:06:34.988Z,10.10
2023-02-21T05:11:37.668Z,9.80
2023-02-21T05:16:40.421Z,8.00
2023-02-21T05:21:43.282Z,9.50
2023-02-21T05:26:46.001Z,7.20
2023-02-21T05:31:48.874Z,10.80
2023-02-21T05:36:51.700Z,8.40
2023-02-21T05:41:54.427Z,12.50
2023-02-21T05:46:57.190Z,9.40
2023-02-21T05:51:59.886Z,12.50
2023-02-21T05:57:02.771Z,14.50
2023-02-21T06:02:05.495Z,17.10
2023-02-21T06:07:08.391Z,18.10
2023-02-21T06:12:11.186Z,16.80
2023-02-21T06:17:13.883Z,8.20
2023-02-21T06:22:17.106Z,11.80
2023-02-21T06:27:19.861Z,13.60
2023-02-21T06:32:22.585Z,14.90
2023-02-21T06:37:25.297Z,8.20
2023-02-21T06:42:30.018Z,11.60
2023-02-21T06:47:32.739Z,14.80
2023-02-21T06:52:35.513Z,19.00
2023-02-21T06:57:38.298Z,15.40
2023-02-21T07:02:41.033Z,19.90
2023-02-21T07:07:43.727Z,13.40
2023-02-21T07:12:46.548Z,13.90
2023-02-21T07:17:49.217Z,7.80
2023-02-21T07:22:52.256Z,13.10
2023-02-21T07:27:54.928Z,15.80
2023-02-21T07:32:58.343Z,19.00
2023-02-21T07:38:01.571Z,14.30
2023-02-21T07:43:04.694Z,10.30
2023-02-21T07:48:07.900Z,16.90
2023-02-21T07:53:12.234Z,6.90
2023-02-21T07:58:15.262Z,11.70
2023-02-21T08:03:18.619Z,13.70
2023-02-21T08:08:22.576Z,10.90
2023-02-21T08:13:25.363Z,11.30
2023-02-21T08:18:28.306Z,8.00
2023-02-21T08:23:31.228Z,10.70
2023-02-21T08:28:34.175Z,12.60
2023-02-21T08:33:36.926Z,16.50
2023-02-21T08:38:40.699Z,18.70
2023-02-21T08:43:44.010Z,15.20
2023-02-21T08:48:47.335Z,16.00
2023-02-21T08:53:51.010Z,14.00
2023-02-21T08:58:55.140Z,16.40
2023-02-21T09:03:58.451Z,12.90
2023-02-21T09:09:01.354Z,11.30
2023-02-21T09:14:06.254Z,15.00
2023-02-21T09:19:11.022Z,16.30
2023-02-21T09:24:14.322Z,17.90
2023-02-21T09:29:19.567Z,10.60
2023-02-21T09:34:22.443Z,11.00
2023-02-21T09:39:25.515Z,12.60
2023-02-21T09:44:30.523Z,12.40
2023-02-21T09:49:44.049Z,14.30
2023-02-21T09:54:57.743Z,18.80
2023-02-21T10:00:00.704Z,15.90
2023-02-21T10:05:12.607Z,8.30
2023-02-21T10:10:22.270Z,21.40
2023-02-21T10:15:42.533Z,13.70
2023-02-21T10:20:51.521Z,15.60
2023-02-21T10:26:02.857Z,12.20
2023-02-21T10:31:18.450Z,18.90
2023-02-21T10:36:23.259Z,19.30
2023-02-21T10:41:29.676Z,28.80
2023-02-21T10:46:45.612Z,13.90
2023-02-21T10:52:04.989Z,14.50
2023-02-21T10:57:11.941Z,13.50
2023-02-21T11:02:40.360Z,13.10
2023-02-21T11:07:58.796Z,14.60
2023-02-21T11:13:22.669Z,35.20
2023-02-21T11:18:26.835Z,14.30
2023-02-21T11:23:31.564Z,13.00
2023-02-21T11:28:43.751Z,14.50
2023-02-21T11:34:05.061Z,16.00
2023-02-21T11:39:17.190Z,22.10
2023-02-21T11:44:26.972Z,15.10
2023-02-21T11:49:32.822Z,16.00
2023-02-21T11:54:35.622Z,12.60
2023-02-21T11:59:50.651Z,10.80
2023-02-21T12:05:13.667Z,19.40
2023-02-21T12:10:42.143Z,14.70
2023-02-21T12:15:55.623Z,15.70
2023-02-21T12:21:04.393Z,17.50
2023-02-21T12:26:22.456Z,14.30
2023-02-21T12:32:03.188Z,13.00
2023-02-21T12:37:57.477Z,15.90
2023-02-21T12:43:38.798Z,15.80
2023-02-21T12:48:52.174Z,10.80
2023-02-21T12:54:03.824Z,13.80
2023-02-21T12:59:24.474Z,15.40
2023-02-21T13:04:42.285Z,9.50
2023-02-21T13:10:00.576Z,11.00
2023-02-21T13:15:26.105Z,14.10
2023-02-21T13:20:47.398Z,13.20
2023-02-21T13:26:22.776Z,15.60
2023-02-21T13:31:39.500Z,21.40
2023-02-21T13:36:48.864Z,17.20
2023-02-21T13:41:57.174Z,17.70
2023-02-21T13:47:21.112Z,17.40
2023-02-21T13:52:34.649Z,21.20
2023-02-21T13:57:46.468Z,13.10
2023-02-21T14:03:00.897Z,19.80
2023-02-21T14:08:07.742Z,13.80
2023-02-21T14:19:19.720Z,14.30
2023-02-21T14:24:29.987Z,14.30
2023-02-21T14:29:41.683Z,15.90
2023-02-21T14:34:47.528Z,15.30
2023-02-21T14:40:14.833Z,23.10
2023-02-21T14:45:55.695Z,22.00
2023-02-21T14:51:23.492Z,21.40
2023-02-21T14:56:59.154Z,22.20
2023-02-21T15:02:42.087Z,14.00
2023-02-21T15:07:54.215Z,16.50
2023-02-21T15:13:03.838Z,20.30
2023-02-21T15:18:31.426Z,21.20
2023-02-21T15:23:34.600Z,14.60
2023-02-21T15:28:37.629Z,14.10
2023-02-21T15:33:43.529Z,11.50
2023-02-21T15:39:05.714Z,19.00
2023-02-21T15:44:16.573Z,12.00
2023-02-21T15:49:38.235Z,21.70
2023-02-21T15:54:41.104Z,23.20
2023-02-21T15:59:44.088Z,19.60
2023-02-21T16:04:48.894Z,14.50
2023-02-21T16:10:10.081Z,17.40
2023-02-21T16:15:19.254Z,11.60
2023-02-21T16:20:39.493Z,26.10
2023-02-21T16:26:02.823Z,29.30
2023-02-21T16:31:09.062Z,23.90
2023-02-21T16:36:23.717Z,23.70
2023-02-21T16:41:27.460Z,26.00
2023-02-21T16:46:30.644Z,20.40
2023-02-21T16:51:35.262Z,24.50
2023-02-21T16:56:40.093Z,25.10
2023-02-21T17:01:43.616Z,20.10
2023-02-21T17:06:51.395Z,23.70
2023-02-21T17:11:55.450Z,21.80
2023-02-21T17:17:02.731Z,25.40
2023-02-21T17:22:05.458Z,26.20
2023-02-21T17:27:09.236Z,23.00
2023-02-21T17:32:11.965Z,19.40
2023-02-21T17:37:14.636Z,23.90
2023-02-21T17:42:17.401Z,66.40
2023-02-21T17:47:22.989Z,20.80
2023-02-21T17:52:28.880Z,16.30
2023-02-21T17:57:37.426Z,19.70
2023-02-21T18:02:40.162Z,20.00
2023-02-21T18:07:46.677Z,20.90
2023-02-21T18:12:51.336Z,25.80
2023-02-21T18:17:54.857Z,23.80
2023-02-21T18:22:58.057Z,19.80
2023-02-21T18:28:02.785Z,19.60
2023-02-21T18:33:06.777Z,27.30
2023-02-21T18:38:09.506Z,21.00
2023-02-21T18:43:42.290Z,34.80
2023-02-21T18:48:49.366Z,36.40
2023-02-21T18:53:52.618Z,31.80
2023-02-21T18:58:56.281Z,24.30
2023-02-21T19:04:03.640Z,22.90
2023-02-21T19:09:06.798Z,22.60
2023-02-21T19:14:09.995Z,24.30
2023-02-21T19:19:12.758Z,18.50
2023-02-21T19:24:15.816Z,18.60
2023-02-21T19:29:19.996Z,15.90
2023-02-21T19:34:22.759Z,17.40
2023-02-21T19:39:25.452Z,38.10
2023-02-21T19:44:30.523Z,43.50
2023-02-21T19:49:34.555Z,25.60
2023-02-21T19:54:37.474Z,22.90
2023-02-21T19:59:40.749Z,21.60
2023-02-21T20:04:43.932Z,21.50
2023-02-21T20:09:48.071Z,17.00
2023-02-21T20:14:53.807Z,13.50
2023-02-21T20:19:56.967Z,11.40
2023-02-21T20:25:01.186Z,16.10
2023-02-21T20:30:05.971Z,17.60
2023-02-21T20:35:10.282Z,13.50
2023-02-21T20:40:16.858Z,18.70
2023-02-21T20:45:19.617Z,20.60
2023-02-21T20:50:24.127Z,20.70
2023-02-21T20:55:26.940Z,15.40
2023-02-21T21:00:30.628Z,12.70
2023-02-21T21:05:33.461Z,8.10
2023-02-21T21:10:37.274Z,13.80
2023-02-21T21:15:41.592Z,12.40
2023-02-21T21:20:44.605Z,16.40
2023-02-21T21:25:47.364Z,14.60
2023-02-21T21:30:50.123Z,14.00
2023-02-21T21:35:58.680Z,12.50
2023-02-21T21:41:07.436Z,7.40
2023-02-21T21:46:11.723Z,21.80
2023-02-21T21:51:15.016Z,13.80
2023-02-21T21:56:23.160Z,17.70
2023-02-21T22:01:27.352Z,16.70
2023-02-21T22:06:30.148Z,13.40
2023-02-21T22:11:33.532Z,8.90
2023-02-21T22:16:37.915Z,15.20
2023-02-21T22:21:43.167Z,9.00
2023-02-21T22:26:45.848Z,6.00
2023-02-21T22:31:50.429Z,7.70
2023-02-21T22:36:57.505Z,3.40
2023-02-21T22:42:00.283Z,2.50
2023-02-21T22:47:03.308Z,3.80
2023-02-21T22:52:06.054Z,2.90
2023-02-21T22:57:08.746Z,3.30
2023-02-21T23:02:11.465Z,6.90
2023-02-21T23:07:14.188Z,10.90
2023-02-21T23:12:16.880Z,3.60
2023-02-21T23:17:19.549Z,3.90
2023-02-21T23:22:25.206Z,2.90
2023-02-21T23:27:27.933Z,4.40
2023-02-21T23:32:30.617Z,4.50
2023-02-21T23:37:33.644Z,5.90
2023-02-21T23:42:36.318Z,4.20
2023-02-21T23:47:43.885Z,5.80
2023-02-21T23:52:48.318Z,10.30
2023-02-21T23:57:52.291Z,7.00
